createdAt,value
2018-11-06T00:00:07.933Z,0.00
2018-11-06T00:01:08.091Z,0.00
2018-11-06T00:02:08.254Z,0.00
2018-11-06T00:03:08.436Z,0.00
2018-11-06T00:04:08.583Z,0.00
2018-11-06T00:05:08.750Z,0.00
2018-11-06T00:06:08.929Z,0.00
2018-11-06T00:07:09.104Z,0.00
2018-11-06T00:08:09.292Z,0.00
2018-11-06T00:09:09.485Z,0.00
2018-11-06T00:10:09.599Z,0.00
2018-11-06T00:11:09.776Z,0.00
2018-11-06T00:12:09.951Z,0.00
2018-11-06T00:13:10.134Z,0.00
2018-11-06T00:14:10.286Z,0.00
2018-11-06T00:15:10.466Z,0.00
2018-11-06T00:16:10.635Z,0.00
2018-11-06T00:17:10.797Z,0.00
2018-11-06T00:18:10.964Z,0.00
2018-11-06T00:19:11.113Z,0.00
2018-11-06T00:20:11.279Z,0.00
2018-11-06T00:21:11.439Z,0.00
2018-11-06T00:22:11.619Z,0.00
2018-11-06T00:23:11.764Z,0.00
2018-11-06T00:24:11.971Z,0.00
2018-11-06T00:25:12.133Z,0.00
2018-11-06T00:26:12.304Z,0.00
2018-11-06T00:27:12.480Z,0.00
2018-11-06T00:28:12.644Z,0.00
2018-11-06T00:29:12.825Z,0.00
2018-11-06T00:30:13.012Z,0.00
2018-11-06T00:31:13.164Z,0.00
2018-11-06T00:32:13.335Z,0.00
2018-11-06T00:33:13.497Z,0.00
2018-11-06T00:34:13.783Z,0.00
2018-11-06T00:35:13.841Z,0.00
2018-11-06T00:36:14.013Z,0.00
2018-11-06T00:37:14.197Z,0.00
2018-11-06T00:38:14.359Z,0.00
2018-11-06T00:39:14.517Z,0.00
2018-11-06T00:40:14.683Z,0.00
2018-11-06T00:41:14.849Z,0.00
2018-11-06T00:42:15.028Z,0.00
2018-11-06T00:43:15.220Z,0.00
2018-11-06T00:44:15.375Z,0.00
2018-11-06T00:45:15.537Z,0.00
2018-11-06T00:46:15.714Z,0.00
2018-11-06T00:47:15.896Z,0.00
2018-11-06T00:48:16.047Z,0.00
2018-11-06T00:49:16.223Z,0.00
2018-11-06T00:50:16.400Z,0.00
2018-11-06T00:51:16.562Z,0.00
2018-11-06T00:52:16.741Z,0.00
2018-11-06T00:53:16.915Z,0.00
2018-11-06T00:54:17.087Z,0.00
2018-11-06T00:55:17.262Z,0.00
2018-11-06T00:56:17.434Z,0.00
2018-11-06T00:57:17.611Z,0.00
2018-11-06T00:58:17.787Z,0.00
2018-11-06T00:59:17.962Z,0.00
2018-11-06T01:00:18.131Z,0.00
2018-11-06T01:01:18.306Z,0.00
2018-11-06T01:02:18.480Z,0.00
2018-11-06T01:03:18.654Z,0.00
2018-11-06T01:04:18.817Z,0.00
2018-11-06T01:05:18.987Z,0.00
2018-11-06T01:06:19.153Z,0.00
2018-11-06T01:07:19.316Z,0.00
2018-11-06T01:08:19.483Z,0.00
2018-11-06T01:09:19.653Z,0.00
2018-11-06T01:10:19.834Z,0.00
2018-11-06T01:11:19.998Z,0.00
2018-11-06T01:12:20.164Z,0.00
2018-11-06T01:13:20.331Z,0.00
2018-11-06T01:14:20.507Z,0.00
2018-11-06T01:15:20.677Z,0.00
2018-11-06T01:16:20.852Z,0.00
2018-11-06T01:17:21.002Z,0.00
2018-11-06T01:18:21.194Z,0.00
2018-11-06T01:19:21.367Z,0.00
2018-11-06T01:20:21.557Z,0.00
2018-11-06T01:21:21.704Z,0.00
2018-11-06T01:22:21.863Z,0.00
2018-11-06T01:23:22.018Z,0.00
2018-11-06T01:24:22.203Z,0.00
2018-11-06T01:25:22.379Z,0.00
2018-11-06T01:26:22.546Z,0.00
2018-11-06T01:27:22.721Z,0.00
2018-11-06T01:28:22.902Z,0.00
2018-11-06T01:29:23.072Z,0.00
2018-11-06T01:30:23.249Z,0.00
2018-11-06T01:31:23.423Z,0.00
2018-11-06T01:32:23.602Z,0.00
2018-11-06T01:33:23.775Z,0.00
2018-11-06T01:34:23.937Z,0.00
2018-11-06T01:35:24.104Z,0.00
2018-11-06T01:36:24.258Z,0.00
2018-11-06T01:37:24.423Z,0.00
2018-11-06T01:38:24.579Z,0.00
2018-11-06T01:39:24.765Z,0.00
2018-11-06T01:40:24.939Z,0.00
2018-11-06T01:41:25.092Z,0.00
2018-11-06T01:42:25.270Z,0.00
2018-11-06T01:43:25.433Z,0.00
2018-11-06T01:44:25.595Z,0.00
2018-11-06T01:45:25.798Z,0.00
2018-11-06T01:46:25.956Z,0.00
2018-11-06T01:47:26.119Z,0.00
2018-11-06T01:48:26.289Z,0.00
2018-11-06T01:49:26.465Z,0.00
2018-11-06T01:50:26.650Z,0.00
2018-11-06T01:51:26.812Z,0.00
2018-11-06T01:52:26.985Z,0.00
2018-11-06T01:53:27.180Z,0.00
2018-11-06T01:54:27.331Z,0.00
2018-11-06T01:55:27.515Z,0.00
2018-11-06T01:56:27.677Z,0.00
2018-11-06T01:57:27.853Z,0.00
2018-11-06T01:58:28.025Z,0.00
2018-11-06T01:59:28.199Z,0.00
2018-11-06T02:00:28.371Z,0.00
2018-11-06T02:01:28.548Z,0.00
2018-11-06T02:02:28.726Z,0.00
2018-11-06T02:03:28.895Z,0.00
2018-11-06T02:04:29.062Z,0.00
2018-11-06T02:05:29.220Z,0.00
2018-11-06T02:06:29.403Z,0.00
2018-11-06T02:07:29.550Z,0.00
2018-11-06T02:08:29.726Z,0.00
2018-11-06T02:09:29.895Z,0.00
2018-11-06T02:10:30.063Z,0.00
2018-11-06T02:11:30.235Z,0.00
2018-11-06T02:12:30.393Z,0.00
2018-11-06T02:13:30.571Z,0.00
2018-11-06T02:14:30.734Z,0.00
2018-11-06T02:15:30.919Z,0.00
2018-11-06T02:16:31.091Z,0.00
2018-11-06T02:17:31.262Z,0.00
2018-11-06T02:18:31.434Z,0.00
2018-11-06T02:19:31.599Z,0.00
2018-11-06T02:20:31.773Z,0.00
2018-11-06T02:21:31.950Z,0.00
2018-11-06T02:22:32.128Z,0.00
2018-11-06T02:23:32.295Z,0.00
2018-11-06T02:24:32.458Z,0.00
2018-11-06T02:25:32.626Z,0.00
2018-11-06T02:26:32.797Z,0.00
2018-11-06T02:27:33.003Z,0.00
2018-11-06T02:28:33.129Z,0.00
2018-11-06T02:29:33.301Z,0.00
2018-11-06T02:30:33.476Z,0.00
2018-11-06T02:31:33.634Z,0.00
2018-11-06T02:32:33.925Z,0.00
2018-11-06T02:33:33.968Z,0.00
2018-11-06T02:34:34.141Z,0.00
2018-11-06T02:35:34.312Z,0.00
2018-11-06T02:36:34.495Z,0.00
2018-11-06T02:37:34.661Z,0.00
2018-11-06T02:38:34.832Z,0.00
2018-11-06T02:39:34.998Z,0.00
2018-11-06T02:40:35.169Z,0.00
2018-11-06T02:41:35.340Z,0.00
2018-11-06T02:42:35.511Z,0.00
2018-11-06T02:43:35.683Z,0.00
2018-11-06T02:44:35.843Z,0.00
2018-11-06T02:45:36.013Z,0.00
2018-11-06T02:46:36.170Z,0.00
2018-11-06T02:47:36.339Z,0.00
2018-11-06T02:48:36.518Z,0.00
2018-11-06T02:49:36.696Z,0.00
2018-11-06T02:50:36.852Z,0.00
2018-11-06T02:51:37.011Z,0.00
2018-11-06T02:52:37.184Z,0.00
2018-11-06T02:53:37.377Z,0.00
2018-11-06T02:54:37.542Z,0.00
2018-11-06T02:55:37.748Z,0.00
2018-11-06T02:56:37.891Z,0.00
2018-11-06T02:57:38.059Z,0.00
2018-11-06T02:58:38.226Z,0.00
2018-11-06T02:59:38.401Z,0.00
2018-11-06T03:00:38.578Z,0.00
2018-11-06T03:01:38.745Z,0.00
2018-11-06T03:02:38.909Z,0.00
2018-11-06T03:03:39.135Z,0.00
2018-11-06T03:04:39.265Z,0.00
2018-11-06T03:05:39.444Z,0.00
2018-11-06T03:06:39.618Z,0.00
2018-11-06T03:07:39.795Z,0.00
2018-11-06T03:08:39.963Z,0.00
2018-11-06T03:09:40.143Z,0.00
2018-11-06T03:10:40.321Z,0.00
2018-11-06T03:11:40.495Z,0.00
2018-11-06T03:12:40.663Z,0.00
2018-11-06T03:13:40.836Z,0.00
2018-11-06T03:14:41.009Z,0.00
2018-11-06T03:15:41.184Z,0.00
2018-11-06T03:16:41.427Z,0.00
2018-11-06T03:17:41.536Z,0.00
2018-11-06T03:18:41.705Z,0.00
2018-11-06T03:19:41.884Z,0.00
2018-11-06T03:20:42.049Z,0.00
2018-11-06T03:21:42.221Z,0.00
2018-11-06T03:22:42.400Z,0.00
2018-11-06T03:23:42.572Z,0.00
2018-11-06T03:24:42.750Z,0.00
2018-11-06T03:25:42.916Z,0.00
2018-11-06T03:26:43.090Z,0.00
2018-11-06T03:27:43.257Z,0.00
2018-11-06T03:28:43.431Z,0.00
2018-11-06T03:29:43.606Z,0.00
2018-11-06T03:30:43.777Z,0.00
2018-11-06T03:31:43.952Z,0.00
2018-11-06T03:32:44.127Z,0.00
2018-11-06T03:33:44.298Z,0.00
2018-11-06T03:34:44.473Z,0.00
2018-11-06T03:35:44.647Z,0.00
2018-11-06T03:36:44.821Z,0.00
2018-11-06T03:37:44.990Z,0.00
2018-11-06T03:38:45.240Z,0.00
2018-11-06T03:39:45.342Z,0.00
2018-11-06T03:40:45.515Z,0.00
2018-11-06T03:41:45.687Z,0.00
2018-11-06T03:42:45.868Z,0.00
2018-11-06T03:43:46.043Z,0.00
2018-11-06T03:44:46.210Z,0.00
2018-11-06T03:45:46.375Z,0.00
2018-11-06T03:46:46.546Z,0.00
2018-11-06T03:47:46.737Z,0.00
2018-11-06T03:48:46.906Z,0.00
2018-11-06T03:49:47.070Z,0.00
2018-11-06T03:50:47.240Z,0.00
2018-11-06T03:51:47.413Z,0.00
2018-11-06T03:52:47.586Z,0.00
2018-11-06T03:53:47.768Z,0.00
2018-11-06T03:54:47.935Z,0.00
2018-11-06T03:55:48.118Z,0.00
2018-11-06T03:56:48.285Z,0.00
2018-11-06T03:57:48.461Z,0.00
2018-11-06T03:58:48.636Z,0.00
2018-11-06T03:59:48.806Z,0.00
2018-11-06T04:00:48.979Z,0.00
2018-11-06T04:01:49.154Z,0.00
2018-11-06T04:02:49.330Z,0.00
2018-11-06T04:03:49.502Z,0.00
2018-11-06T04:04:49.672Z,0.00
2018-11-06T04:05:49.844Z,0.00
2018-11-06T04:06:50.022Z,0.00
2018-11-06T04:07:50.194Z,0.00
2018-11-06T04:08:50.367Z,0.00
2018-11-06T04:09:50.544Z,0.00
2018-11-06T04:10:50.715Z,0.00
2018-11-06T04:11:50.886Z,0.00
2018-11-06T04:12:51.072Z,0.00
2018-11-06T04:13:51.272Z,0.00
2018-11-06T04:14:51.409Z,0.00
2018-11-06T04:15:51.586Z,0.00
2018-11-06T04:16:51.766Z,0.00
2018-11-06T04:17:51.927Z,0.00
2018-11-06T04:18:52.085Z,0.00
2018-11-06T04:19:52.270Z,0.00
2018-11-06T04:20:52.454Z,0.00
2018-11-06T04:21:52.619Z,0.00
2018-11-06T04:22:52.788Z,0.00
2018-11-06T04:23:52.954Z,0.00
2018-11-06T04:24:53.130Z,0.00
2018-11-06T04:25:53.298Z,0.00
2018-11-06T04:26:53.472Z,0.00
2018-11-06T04:27:53.644Z,0.00
2018-11-06T04:28:53.819Z,0.00
2018-11-06T04:29:53.984Z,0.00
2018-11-06T04:30:54.156Z,0.00
2018-11-06T04:31:54.326Z,0.00
2018-11-06T04:32:54.502Z,0.00
2018-11-06T04:33:54.672Z,0.00
2018-11-06T04:34:54.843Z,0.00
2018-11-06T04:35:55.020Z,0.00
2018-11-06T04:36:55.194Z,0.00
2018-11-06T04:37:55.370Z,0.00
2018-11-06T04:38:55.542Z,0.00
2018-11-06T04:39:55.717Z,0.00
2018-11-06T04:40:55.888Z,0.00
2018-11-06T04:41:56.060Z,0.00
2018-11-06T04:42:56.234Z,0.00
2018-11-06T04:43:56.411Z,0.00
2018-11-06T04:44:56.585Z,0.00
2018-11-06T04:45:56.753Z,0.00
2018-11-06T04:46:56.930Z,0.00
2018-11-06T04:47:57.106Z,0.00
2018-11-06T04:48:57.275Z,0.00
2018-11-06T04:49:57.447Z,0.00
2018-11-06T04:50:57.622Z,0.00
2018-11-06T04:51:57.797Z,0.00
2018-11-06T04:52:57.972Z,0.00
2018-11-06T04:53:58.143Z,0.00
2018-11-06T04:54:58.313Z,0.00
2018-11-06T04:55:58.486Z,0.00
2018-11-06T04:56:58.668Z,0.00
2018-11-06T04:57:58.844Z,0.00
2018-11-06T04:58:59.006Z,0.00
2018-11-06T04:59:59.187Z,0.00
2018-11-06T05:00:59.352Z,0.00
2018-11-06T05:01:59.564Z,0.00
2018-11-06T05:02:59.698Z,0.00
2018-11-06T05:03:59.873Z,0.00
2018-11-06T05:05:00.051Z,0.00
2018-11-06T05:06:00.221Z,0.00
2018-11-06T05:07:00.512Z,0.00
2018-11-06T05:08:00.566Z,0.00
2018-11-06T05:09:00.749Z,0.00
2018-11-06T05:10:00.916Z,0.00
2018-11-06T05:11:01.092Z,0.00
2018-11-06T05:12:01.263Z,0.00
2018-11-06T05:13:01.445Z,0.00
2018-11-06T05:14:01.663Z,0.00
2018-11-06T05:15:01.786Z,0.00
2018-11-06T05:16:01.971Z,0.00
2018-11-06T05:17:02.152Z,0.00
2018-11-06T05:18:02.316Z,0.00
2018-11-06T05:19:02.488Z,0.00
2018-11-06T05:20:02.663Z,0.00
2018-11-06T05:21:02.829Z,0.00
2018-11-06T05:22:03.012Z,0.00
2018-11-06T05:23:03.169Z,0.00
2018-11-06T05:24:03.345Z,0.00
2018-11-06T05:25:03.512Z,0.00
2018-11-06T05:26:03.696Z,0.00
2018-11-06T05:27:03.864Z,0.00
2018-11-06T05:28:04.030Z,0.00
2018-11-06T05:29:04.201Z,0.00
2018-11-06T05:30:04.364Z,0.00
2018-11-06T05:31:04.525Z,0.00
2018-11-06T05:32:04.694Z,0.00
2018-11-06T05:33:04.914Z,0.00
2018-11-06T05:34:04.998Z,0.00
2018-11-06T05:35:05.161Z,0.00
2018-11-06T05:36:05.377Z,0.00
2018-11-06T05:37:05.512Z,0.00
2018-11-06T05:38:05.697Z,0.00
2018-11-06T05:39:06.039Z,0.00
2018-11-06T05:40:06.043Z,0.00
2018-11-06T05:41:06.278Z,0.00
2018-11-06T05:42:06.385Z,0.00
2018-11-06T05:43:06.548Z,0.00
2018-11-06T05:44:06.869Z,0.00
2018-11-06T05:45:06.874Z,0.00
2018-11-06T05:46:07.035Z,0.00
2018-11-06T05:47:07.198Z,0.00
2018-11-06T05:48:07.353Z,0.00
2018-11-06T05:49:07.554Z,0.00
2018-11-06T05:50:07.731Z,0.00
2018-11-06T05:51:07.864Z,0.00
2018-11-06T05:52:08.028Z,0.00
2018-11-06T05:53:08.307Z,0.00
2018-11-06T05:54:08.355Z,0.00
2018-11-06T05:55:08.516Z,0.00
2018-11-06T05:56:08.705Z,0.00
2018-11-06T05:57:08.874Z,0.00
2018-11-06T05:58:09.049Z,0.00
2018-11-06T05:59:09.217Z,0.00
2018-11-06T06:00:09.385Z,0.00
2018-11-06T06:01:09.577Z,0.00
2018-11-06T06:02:09.734Z,0.00
2018-11-06T06:03:09.911Z,0.00
2018-11-06T06:04:10.079Z,0.00
2018-11-06T06:05:10.243Z,0.00
2018-11-06T06:06:10.414Z,0.00
2018-11-06T06:07:10.583Z,0.00
2018-11-06T06:08:10.749Z,0.00
2018-11-06T06:09:10.926Z,0.00
2018-11-06T06:10:11.118Z,0.00
2018-11-06T06:11:11.377Z,0.00
2018-11-06T06:12:11.458Z,0.00
2018-11-06T06:14:11.817Z,0.00
2018-11-06T06:15:11.987Z,0.00
2018-11-06T06:17:12.393Z,0.00
2018-11-06T06:18:12.502Z,0.00
2018-11-06T06:19:12.666Z,0.00
2018-11-06T06:20:12.834Z,0.00
2018-11-06T06:21:13.010Z,0.00
2018-11-06T06:22:13.183Z,0.00
2018-11-06T06:23:13.359Z,0.00
2018-11-06T06:24:13.535Z,5.63
2018-11-06T06:25:13.694Z,5.63
2018-11-06T06:26:13.863Z,5.63
2018-11-06T06:27:14.035Z,5.63
2018-11-06T06:28:14.229Z,5.63
2018-11-06T06:29:14.370Z,5.63
2018-11-06T06:30:14.538Z,5.63
2018-11-06T06:31:14.708Z,5.63
2018-11-06T06:32:14.889Z,11.25
2018-11-06T06:33:15.051Z,11.25
2018-11-06T06:34:15.224Z,11.25
2018-11-06T06:35:15.495Z,11.25
2018-11-06T06:36:15.575Z,11.25
2018-11-06T06:37:15.737Z,11.25
2018-11-06T06:38:15.906Z,11.25
2018-11-06T06:39:16.078Z,16.88
2018-11-06T06:40:16.346Z,16.88
2018-11-06T06:41:16.429Z,16.88
2018-11-06T06:42:16.603Z,22.50
2018-11-06T06:43:16.773Z,22.50
2018-11-06T06:44:16.945Z,22.50
2018-11-06T06:45:17.118Z,28.13
2018-11-06T06:46:17.337Z,28.13
2018-11-06T06:47:17.465Z,28.13
2018-11-06T06:48:17.641Z,28.13
2018-11-06T06:49:17.803Z,28.13
2018-11-06T06:50:17.977Z,28.13
2018-11-06T06:51:18.155Z,28.13
2018-11-06T06:52:18.329Z,28.13
2018-11-06T06:53:18.505Z,28.13
2018-11-06T06:54:18.839Z,28.13
2018-11-06T06:55:18.909Z,28.13
2018-11-06T06:56:19.032Z,28.13
2018-11-06T06:57:19.190Z,28.13
2018-11-06T06:58:19.363Z,28.13
2018-11-06T06:59:19.537Z,28.13
2018-11-06T07:00:19.706Z,28.13
2018-11-06T07:01:19.863Z,28.13
2018-11-06T07:02:20.070Z,28.13
2018-11-06T07:03:20.234Z,28.13
2018-11-06T07:04:20.410Z,33.75
2018-11-06T07:05:20.580Z,33.75
2018-11-06T07:06:20.755Z,33.75
2018-11-06T07:07:20.937Z,33.75
2018-11-06T07:08:21.107Z,33.75
2018-11-06T07:09:21.279Z,39.38
2018-11-06T07:10:21.457Z,39.38
2018-11-06T07:11:21.632Z,39.38
2018-11-06T07:12:21.808Z,39.38
2018-11-06T07:13:21.976Z,39.38
2018-11-06T07:14:22.147Z,39.38
2018-11-06T07:15:22.342Z,39.38
2018-11-06T07:16:22.501Z,39.38
2018-11-06T07:17:22.671Z,39.38
2018-11-06T07:18:22.845Z,39.38
2018-11-06T07:19:23.013Z,39.38
2018-11-06T07:20:23.187Z,45.00
2018-11-06T07:21:23.351Z,45.00
2018-11-06T07:22:23.516Z,45.00
2018-11-06T07:23:23.676Z,45.00
2018-11-06T07:24:23.855Z,45.00
2018-11-06T07:25:24.027Z,45.00
2018-11-06T07:26:24.249Z,45.00
2018-11-06T07:27:24.422Z,45.00
2018-11-06T07:28:24.586Z,45.00
2018-11-06T07:29:24.769Z,45.00
2018-11-06T07:30:24.941Z,45.00
2018-11-06T07:31:25.145Z,50.63
2018-11-06T07:32:25.289Z,50.63
2018-11-06T07:33:25.491Z,50.63
2018-11-06T07:34:25.699Z,56.25
2018-11-06T07:35:26.005Z,56.25
2018-11-06T07:36:26.049Z,56.25
2018-11-06T07:41:27.139Z,61.88
2018-11-06T07:42:27.076Z,61.88
2018-11-06T07:46:27.744Z,67.50
2018-11-06T07:49:28.304Z,61.88
2018-11-06T07:49:32.029Z,61.88
2018-11-06T07:49:35.961Z,67.50
2018-11-06T07:52:28.912Z,61.88
2018-11-06T07:56:29.768Z,61.88
2018-11-06T08:00:33.874Z,67.50
2018-11-06T08:03:30.705Z,78.75
2018-11-06T08:04:31.609Z,84.38
2018-11-06T08:06:31.546Z,78.75
2018-11-06T08:10:33.774Z,78.75
2018-11-06T08:15:33.014Z,84.38
2018-11-06T08:17:46.306Z,90.00
2018-11-06T08:22:34.269Z,106.88
2018-11-06T08:23:34.434Z,112.50
2018-11-06T08:23:46.841Z,101.25
2018-11-06T08:24:34.623Z,118.13
2018-11-06T08:26:11.929Z,123.75
2018-11-06T08:26:47.233Z,129.38
2018-11-06T08:27:35.145Z,140.63
2018-11-06T09:00:40.794Z,247.50
2018-11-06T09:02:39.706Z,286.88
2018-11-06T09:13:26.354Z,337.50
2018-11-06T09:16:43.555Z,343.13
2018-11-06T09:19:13.902Z,320.63
2018-11-06T09:29:11.026Z,354.38
2018-11-06T09:30:11.185Z,326.25
2018-11-06T09:36:47.045Z,371.25
2018-11-06T09:37:02.058Z,360.00
2018-11-06T09:37:47.226Z,416.25
2018-11-06T09:38:02.217Z,337.50
2018-11-06T09:38:47.405Z,421.88
2018-11-06T09:39:47.587Z,376.88
2018-11-06T09:40:47.763Z,416.25
2018-11-06T09:41:47.951Z,427.50
2018-11-06T09:42:48.131Z,438.75
2018-11-06T09:43:48.309Z,416.25
2018-11-06T09:44:48.512Z,421.88
2018-11-06T09:45:48.675Z,410.63
2018-11-06T09:46:48.860Z,399.38
2018-11-06T09:47:49.042Z,410.63
2018-11-06T09:48:49.248Z,416.25
2018-11-06T09:49:49.410Z,416.25
2018-11-06T09:50:49.588Z,360.00
2018-11-06T09:51:49.781Z,365.63
2018-11-06T09:52:49.951Z,376.88
2018-11-06T09:53:50.139Z,399.38
2018-11-06T09:57:22.594Z,438.75
2018-11-06T09:58:22.775Z,438.75
2018-11-06T09:59:22.954Z,399.38
2018-11-06T10:00:23.199Z,371.25
2018-11-06T10:01:23.328Z,376.88
2018-11-06T10:02:24.146Z,427.50
2018-11-06T10:03:23.699Z,399.38
2018-11-06T10:04:23.873Z,399.38
2018-11-06T10:05:24.062Z,376.88
2018-11-06T10:06:24.397Z,416.25
2018-11-06T10:07:24.634Z,416.25
2018-11-06T10:08:24.594Z,438.75
2018-11-06T10:09:24.771Z,450.00
2018-11-06T10:10:24.956Z,433.13
2018-11-06T10:11:25.172Z,416.25
2018-11-06T10:12:25.344Z,438.75
2018-11-06T10:13:25.496Z,438.75
2018-11-06T10:14:25.666Z,427.50
2018-11-06T10:15:25.904Z,405.00
2018-11-06T10:16:26.029Z,416.25
2018-11-06T10:17:26.200Z,444.38
2018-11-06T10:18:26.377Z,427.50
2018-11-06T10:19:26.559Z,416.25
2018-11-06T10:20:26.736Z,433.13
2018-11-06T10:21:26.934Z,438.75
2018-11-06T10:22:27.095Z,421.88
2018-11-06T10:23:27.277Z,438.75
2018-11-06T10:24:27.464Z,466.88
2018-11-06T10:25:27.645Z,466.88
2018-11-06T10:26:27.832Z,450.00
2018-11-06T10:27:27.999Z,410.63
2018-11-06T10:28:28.181Z,388.13
2018-11-06T10:29:28.361Z,365.63
2018-11-06T10:30:28.542Z,354.38
2018-11-06T10:31:28.727Z,315.00
2018-11-06T10:32:28.907Z,315.00
2018-11-06T10:33:29.085Z,331.88
2018-11-06T10:34:29.269Z,315.00
2018-11-06T10:35:29.446Z,320.63
2018-11-06T10:36:29.642Z,348.75
2018-11-06T10:37:29.805Z,354.38
2018-11-06T10:38:29.997Z,326.25
2018-11-06T10:39:30.150Z,298.13
2018-11-06T10:40:30.336Z,298.13
2018-11-06T10:41:30.510Z,303.75
2018-11-06T10:42:30.689Z,326.25
2018-11-06T10:43:30.875Z,348.75
2018-11-06T10:44:31.058Z,337.50
2018-11-06T10:45:31.237Z,315.00
2018-11-06T10:46:31.419Z,292.50
2018-11-06T10:47:31.601Z,303.75
2018-11-06T10:48:31.790Z,303.75
2018-11-06T10:49:31.964Z,326.25
2018-11-06T10:50:32.143Z,315.00
2018-11-06T10:51:32.329Z,331.88
2018-11-06T10:52:32.512Z,337.50
2018-11-06T10:53:32.686Z,320.63
2018-11-06T10:54:32.874Z,303.75
2018-11-06T10:55:33.041Z,298.13
2018-11-06T10:56:33.227Z,292.50
2018-11-06T10:57:33.401Z,298.13
2018-11-06T10:58:33.589Z,309.38
2018-11-06T10:59:33.762Z,309.38
2018-11-06T11:00:33.943Z,309.38
2018-11-06T11:01:34.124Z,315.00
2018-11-06T11:02:34.306Z,298.13
2018-11-06T11:03:34.488Z,292.50
2018-11-06T11:04:34.685Z,309.38
2018-11-06T11:05:34.862Z,309.38
2018-11-06T11:06:35.044Z,315.00
2018-11-06T11:07:35.231Z,309.38
2018-11-06T11:08:35.403Z,303.75
2018-11-06T11:09:35.591Z,303.75
2018-11-06T11:10:35.771Z,303.75
2018-11-06T11:11:35.949Z,309.38
2018-11-06T11:12:36.305Z,320.63
2018-11-06T11:13:36.313Z,309.38
2018-11-06T11:14:36.497Z,298.13
2018-11-06T11:15:36.683Z,303.75
2018-11-06T11:16:36.852Z,320.63
2018-11-06T11:17:37.035Z,315.00
2018-11-06T11:18:37.227Z,326.25
2018-11-06T11:20:37.571Z,348.75
2018-11-06T11:21:37.770Z,326.25
2018-11-06T11:22:37.941Z,298.13
2018-11-06T11:23:38.118Z,298.13
2018-11-06T11:24:38.299Z,303.75
2018-11-06T11:26:38.657Z,286.88
2018-11-06T11:27:38.839Z,286.88
2018-11-06T11:28:39.020Z,281.25
2018-11-06T11:29:39.202Z,286.88
2018-11-06T11:30:39.470Z,286.88
2018-11-06T11:31:39.738Z,292.50
2018-11-06T11:32:39.821Z,309.38
2018-11-06T11:33:39.998Z,343.13
2018-11-06T11:34:40.177Z,331.88
2018-11-06T11:36:40.525Z,326.25
2018-11-06T11:37:40.740Z,320.63
2018-11-06T11:38:40.895Z,315.00
2018-11-06T11:39:41.068Z,315.00
2018-11-06T11:40:41.255Z,315.00
2018-11-06T11:41:41.429Z,326.25
2018-11-06T11:42:41.652Z,326.25
2018-11-06T11:43:41.789Z,337.50
2018-11-06T11:44:41.990Z,320.63
2018-11-06T11:45:42.202Z,326.25
2018-11-06T11:46:42.351Z,331.88
2018-11-06T11:47:42.532Z,309.38
2018-11-06T11:48:42.739Z,298.13
2018-11-06T11:49:42.895Z,286.88
2018-11-06T11:50:43.093Z,275.63
2018-11-06T11:51:43.257Z,275.63
2018-11-06T11:52:43.435Z,270.00
2018-11-06T11:53:43.611Z,264.38
2018-11-06T11:54:43.795Z,258.75
2018-11-06T11:56:44.166Z,258.75
2018-11-06T11:57:44.335Z,253.13
2018-11-06T11:58:44.515Z,247.50
2018-11-06T11:59:44.699Z,253.13
2018-11-06T12:00:44.880Z,258.75
2018-11-06T12:01:45.058Z,281.25
2018-11-06T12:02:45.263Z,275.63
2018-11-06T12:03:45.419Z,286.88
2018-11-06T12:04:45.608Z,275.63
2018-11-06T12:05:45.789Z,286.88
2018-11-06T12:06:45.965Z,309.38
2018-11-06T12:07:46.149Z,309.38
2018-11-06T12:08:46.331Z,326.25
2018-11-06T12:09:46.517Z,337.50
2018-11-06T12:10:46.699Z,337.50
2018-11-06T12:11:46.876Z,326.25
2018-11-06T12:12:47.060Z,326.25
2018-11-06T12:13:47.239Z,326.25
2018-11-06T12:14:47.424Z,326.25
2018-11-06T12:15:47.599Z,315.00
2018-11-06T12:16:47.781Z,331.88
2018-11-06T12:17:47.966Z,320.63
2018-11-06T12:18:48.153Z,348.75
2018-11-06T12:19:48.325Z,348.75
2018-11-06T12:20:48.509Z,354.38
2018-11-06T12:21:48.694Z,354.38
2018-11-06T12:22:48.874Z,382.50
2018-11-06T12:23:49.056Z,343.13
2018-11-06T12:24:49.481Z,348.75
2018-11-06T12:25:49.629Z,337.50
2018-11-06T12:26:49.598Z,348.75
2018-11-06T12:27:49.790Z,348.75
2018-11-06T12:28:49.973Z,348.75
2018-11-06T12:29:50.163Z,326.25
2018-11-06T12:30:50.338Z,303.75
2018-11-06T12:31:50.521Z,303.75
2018-11-06T12:32:50.701Z,292.50
2018-11-06T12:33:50.886Z,281.25
2018-11-06T12:34:51.071Z,258.75
2018-11-06T12:35:51.267Z,258.75
2018-11-06T12:36:51.505Z,258.75
2018-11-06T12:37:51.639Z,258.75
2018-11-06T12:38:51.814Z,258.75
2018-11-06T12:39:51.999Z,253.13
2018-11-06T12:40:52.180Z,241.88
2018-11-06T12:41:52.364Z,236.25
2018-11-06T12:42:52.600Z,236.25
2018-11-06T12:43:52.697Z,241.88
2018-11-06T12:44:52.869Z,236.25
2018-11-06T12:45:53.055Z,236.25
2018-11-06T12:46:53.259Z,236.25
2018-11-06T12:47:53.420Z,219.38
2018-11-06T12:48:53.601Z,208.13
2018-11-06T12:49:53.786Z,208.13
2018-11-06T12:50:53.969Z,230.63
2018-11-06T12:51:54.165Z,247.50
2018-11-06T12:52:54.336Z,247.50
2018-11-06T12:53:54.516Z,247.50
2018-11-06T12:54:54.711Z,247.50
2018-11-06T12:55:54.878Z,236.25
2018-11-06T12:56:55.054Z,264.38
2018-11-06T12:57:55.238Z,275.63
2018-11-06T12:58:55.420Z,247.50
2018-11-06T12:59:55.595Z,247.50
2018-11-06T13:00:55.776Z,230.63
2018-11-06T13:01:55.980Z,247.50
2018-11-06T13:02:56.158Z,275.63
2018-11-06T13:03:56.338Z,264.38
2018-11-06T13:04:56.524Z,241.88
2018-11-06T13:05:56.700Z,264.38
2018-11-06T13:06:56.878Z,270.00
2018-11-06T13:07:57.064Z,219.38
2018-11-06T13:08:57.470Z,202.50
2018-11-06T13:09:57.539Z,185.63
2018-11-06T13:10:57.663Z,174.38
2018-11-06T13:11:57.843Z,163.13
2018-11-06T13:12:58.021Z,157.50
2018-11-06T13:13:58.251Z,151.88
2018-11-06T13:14:59.321Z,151.88
2018-11-06T13:15:58.696Z,151.88
2018-11-06T13:16:58.820Z,151.88
2018-11-06T13:17:58.936Z,146.25
2018-11-06T13:18:59.116Z,146.25
2018-11-06T13:19:59.295Z,140.63
2018-11-06T13:20:59.480Z,140.63
2018-11-06T13:21:59.682Z,140.63
2018-11-06T13:22:59.841Z,135.00
2018-11-06T13:24:00.022Z,135.00
2018-11-06T13:25:00.212Z,135.00
2018-11-06T13:26:00.424Z,129.38
2018-11-06T13:27:00.576Z,129.38
2018-11-06T13:28:00.761Z,129.38
2018-11-06T13:29:00.931Z,129.38
2018-11-06T13:30:01.119Z,123.75
2018-11-06T13:31:01.298Z,123.75
2018-11-06T13:32:01.479Z,123.75
2018-11-06T13:33:01.659Z,123.75
2018-11-06T13:34:01.850Z,118.13
2018-11-06T13:35:02.019Z,118.13
2018-11-06T13:36:02.206Z,118.13
2018-11-06T13:37:02.378Z,118.13
2018-11-06T13:38:02.547Z,118.13
2018-11-06T13:39:02.748Z,112.50
2018-11-06T13:40:02.904Z,112.50
2018-11-06T13:41:03.084Z,112.50
2018-11-06T13:42:03.336Z,112.50
2018-11-06T13:43:03.543Z,112.50
2018-11-06T13:44:03.860Z,118.13
2018-11-06T13:45:04.034Z,118.13
2018-11-06T13:46:03.984Z,118.13
2018-11-06T13:47:04.166Z,118.13
2018-11-06T13:48:04.349Z,118.13
2018-11-06T13:49:04.521Z,118.13
2018-11-06T13:50:04.703Z,118.13
2018-11-06T13:51:04.878Z,118.13
2018-11-06T13:52:05.067Z,118.13
2018-11-06T13:53:05.245Z,118.13
2018-11-06T13:54:05.421Z,118.13
2018-11-06T13:55:05.605Z,118.13
2018-11-06T13:56:05.782Z,118.13
2018-11-06T13:57:05.962Z,112.50
2018-11-06T13:58:06.150Z,112.50
2018-11-06T13:59:06.311Z,112.50
2018-11-06T14:00:06.491Z,112.50
2018-11-06T14:01:06.690Z,112.50
2018-11-06T14:02:06.854Z,106.88
2018-11-06T14:03:07.032Z,106.88
2018-11-06T14:04:07.268Z,106.88
2018-11-06T14:05:07.388Z,106.88
2018-11-06T14:06:07.554Z,101.25
2018-11-06T14:07:07.746Z,101.25
2018-11-06T14:08:07.918Z,101.25
2018-11-06T14:09:08.101Z,101.25
2018-11-06T14:10:08.297Z,101.25
2018-11-06T14:11:08.451Z,95.63
2018-11-06T14:12:08.632Z,95.63
2018-11-06T14:13:08.824Z,95.63
2018-11-06T14:14:08.992Z,95.63
2018-11-06T14:15:09.173Z,90.00
2018-11-06T14:16:09.351Z,90.00
2018-11-06T14:17:09.515Z,90.00
2018-11-06T14:18:09.678Z,90.00
2018-11-06T14:19:09.859Z,90.00
2018-11-06T14:20:10.018Z,84.38
2018-11-06T14:21:10.324Z,84.38
2018-11-06T14:22:10.354Z,84.38
2018-11-06T14:23:10.528Z,84.38
2018-11-06T14:24:10.705Z,84.38
2018-11-06T14:25:10.934Z,78.75
2018-11-06T14:26:11.095Z,78.75
2018-11-06T14:27:11.433Z,78.75
2018-11-06T14:28:11.449Z,73.13
2018-11-06T14:29:11.636Z,73.13
2018-11-06T14:30:11.806Z,73.13
2018-11-06T14:31:11.991Z,73.13
2018-11-06T14:32:12.172Z,67.50
2018-11-06T14:33:12.349Z,67.50
2018-11-06T14:34:12.511Z,67.50
2018-11-06T14:35:12.687Z,61.88